createdAt,value
2023-01-29T00:02:19.705Z,58.65
2023-01-29T00:04:49.223Z,58.51
2023-01-29T00:07:17.172Z,58.91
2023-01-29T00:09:52.518Z,59.25
2023-01-29T00:12:20.500Z,59.04
2023-01-29T00:14:48.330Z,59.33
2023-01-29T00:17:16.368Z,58.87
2023-01-29T00:19:44.219Z,57.72
2023-01-29T00:22:13.675Z,58.03
2023-01-29T00:24:41.438Z,59.17
2023-01-29T00:27:09.384Z,59.10
2023-01-29T00:29:37.159Z,59.63
2023-01-29T00:32:05.636Z,59.54
2023-01-29T00:34:33.723Z,59.85
2023-01-29T00:37:09.016Z,60.10
2023-01-29T00:39:47.720Z,59.63
2023-01-29T00:42:33.639Z,59.34
2023-01-29T00:45:01.551Z,59.97
2023-01-29T00:47:33.550Z,59.66
2023-01-29T00:50:02.197Z,59.72
2023-01-29T00:52:30.403Z,59.98
2023-01-29T00:55:01.476Z,60.15
2023-01-29T00:57:31.981Z,60.39
2023-01-29T01:00:00.325Z,60.12
2023-01-29T01:02:46.778Z,60.21
2023-01-29T01:05:18.919Z,60.42
2023-01-29T01:07:48.932Z,60.12
2023-01-29T01:10:22.575Z,60.49
2023-01-29T01:12:54.574Z,60.57
2023-01-29T01:15:23.587Z,59.40
2023-01-29T01:17:54.021Z,59.07
2023-01-29T01:20:23.288Z,60.51
2023-01-29T01:22:54.201Z,60.51
2023-01-29T01:25:23.982Z,60.87
2023-01-29T01:27:53.906Z,60.52
2023-01-29T01:30:22.210Z,60.67
2023-01-29T01:32:50.552Z,60.24
2023-01-29T01:35:18.872Z,60.62
2023-01-29T01:37:46.865Z,61.50
2023-01-29T01:40:18.987Z,62.64
2023-01-29T01:42:50.967Z,62.07
2023-01-29T01:45:21.662Z,62.60
2023-01-29T01:47:54.854Z,63.44
2023-01-29T01:50:27.850Z,63.86
2023-01-29T01:53:00.932Z,63.08
2023-01-29T01:55:32.772Z,63.94
2023-01-29T01:58:07.701Z,64.04
2023-01-29T02:00:35.590Z,64.56
2023-01-29T02:03:22.566Z,64.72
2023-01-29T02:06:09.536Z,65.73
2023-01-29T02:09:03.895Z,66.00
2023-01-29T02:11:32.215Z,66.62
2023-01-29T02:14:01.764Z,66.21
2023-01-29T02:16:29.833Z,65.17
2023-01-29T02:18:58.190Z,64.22
2023-01-29T02:21:42.898Z,64.57
2023-01-29T02:24:46.312Z,64.82
2023-01-29T02:27:18.202Z,63.34
2023-01-29T02:29:56.166Z,63.65
2023-01-29T02:32:31.826Z,62.45
2023-01-29T02:35:29.801Z,62.62
2023-01-29T02:38:06.897Z,62.71
2023-01-29T02:40:42.066Z,63.19
2023-01-29T02:43:19.928Z,63.25
2023-01-29T02:45:55.187Z,63.30
2023-01-29T02:48:26.607Z,62.41
2023-01-29T02:51:00.553Z,62.83
2023-01-29T02:53:35.858Z,62.86
2023-01-29T02:56:11.312Z,63.46
2023-01-29T02:58:44.365Z,63.67
2023-01-29T03:01:18.552Z,64.24
2023-01-29T03:03:53.817Z,63.66
2023-01-29T03:06:26.235Z,63.04
2023-01-29T03:08:58.786Z,62.41
2023-01-29T03:11:30.717Z,62.02
2023-01-29T03:14:03.829Z,61.71
2023-01-29T03:16:37.884Z,62.25
2023-01-29T03:19:09.829Z,62.92
2023-01-29T03:22:00.077Z,63.20
2023-01-29T03:24:56.211Z,62.77
2023-01-29T03:27:48.484Z,63.74
2023-01-29T03:30:38.915Z,63.10
2023-01-29T03:33:25.518Z,62.27
2023-01-29T03:36:00.894Z,63.14
2023-01-29T03:38:31.710Z,61.33
2023-01-29T03:41:09.091Z,61.57
2023-01-29T03:43:44.479Z,61.95
2023-01-29T03:46:19.418Z,61.02
2023-01-29T03:48:56.846Z,62.27
2023-01-29T03:51:31.278Z,62.44
2023-01-29T03:54:08.580Z,62.97
2023-01-29T03:56:45.279Z,62.40
2023-01-29T03:59:36.073Z,62.41
2023-01-29T04:02:36.142Z,62.13
2023-01-29T04:05:15.876Z,60.20
2023-01-29T04:08:00.364Z,59.95
2023-01-29T04:10:30.536Z,61.10
2023-01-29T04:13:03.211Z,60.33
2023-01-29T04:15:37.502Z,59.96
2023-01-29T04:18:06.137Z,59.12
2023-01-29T04:20:56.908Z,58.03
2023-01-29T04:23:27.022Z,58.25
2023-01-29T04:26:15.525Z,57.57
2023-01-29T04:28:54.960Z,58.71
2023-01-29T04:31:29.321Z,59.03
2023-01-29T04:34:08.157Z,58.27
2023-01-29T04:36:43.718Z,57.99
2023-01-29T04:39:19.358Z,57.25
2023-01-29T04:41:55.058Z,57.52
2023-01-29T04:44:31.114Z,58.18
2023-01-29T04:47:07.972Z,57.94
2023-01-29T04:49:44.491Z,57.47
2023-01-29T04:52:22.156Z,57.82
2023-01-29T04:55:02.481Z,58.65
2023-01-29T04:57:35.513Z,58.14
2023-01-29T05:00:09.737Z,58.53
2023-01-29T05:02:42.027Z,58.35
2023-01-29T05:05:12.258Z,59.06
2023-01-29T05:07:43.833Z,58.51
2023-01-29T05:10:15.860Z,58.54
2023-01-29T05:12:47.700Z,59.36
2023-01-29T05:15:19.245Z,58.99
2023-01-29T05:17:47.130Z,58.27
2023-01-29T05:20:15.173Z,58.27
2023-01-29T05:22:45.947Z,58.55
2023-01-29T05:25:22.594Z,58.48
2023-01-29T05:28:06.689Z,58.51
2023-01-29T05:30:36.268Z,58.15
2023-01-29T05:33:04.976Z,57.81
2023-01-29T05:35:33.097Z,57.64
2023-01-29T05:38:02.325Z,58.55
2023-01-29T05:40:30.318Z,60.43
2023-01-29T05:42:58.241Z,59.87
2023-01-29T05:45:26.388Z,60.10
2023-01-29T05:47:57.066Z,60.44
2023-01-29T05:50:25.794Z,59.46
2023-01-29T05:52:57.882Z,59.57
2023-01-29T05:55:29.307Z,59.21
2023-01-29T05:57:57.193Z,58.87
2023-01-29T06:00:25.584Z,60.05
2023-01-29T06:02:54.063Z,59.05
2023-01-29T06:05:22.065Z,58.71
2023-01-29T06:07:50.039Z,59.15
2023-01-29T06:10:19.810Z,59.07
2023-01-29T06:12:49.290Z,59.28
2023-01-29T06:15:19.644Z,58.03
2023-01-29T06:17:47.677Z,58.11
2023-01-29T06:20:15.906Z,58.33
2023-01-29T06:22:44.043Z,57.52
2023-01-29T06:25:11.908Z,57.15
2023-01-29T06:27:39.767Z,57.13
2023-01-29T06:30:12.725Z,57.48
2023-01-29T06:32:40.589Z,58.12
2023-01-29T06:35:10.172Z,59.34
2023-01-29T06:37:38.476Z,59.06
2023-01-29T06:40:07.236Z,59.09
2023-01-29T06:42:36.614Z,59.40
2023-01-29T06:45:05.002Z,59.47
2023-01-29T06:47:34.460Z,59.97
2023-01-29T06:50:02.530Z,59.19
2023-01-29T06:52:30.405Z,59.64
2023-01-29T06:54:58.410Z,59.42
2023-01-29T06:57:26.301Z,59.84
2023-01-29T06:59:54.119Z,62.25
2023-01-29T07:02:21.979Z,62.70
2023-01-29T07:04:51.142Z,62.52
2023-01-29T07:07:19.006Z,62.33
2023-01-29T07:09:46.878Z,61.80
2023-01-29T07:12:14.741Z,62.98
2023-01-29T07:14:42.582Z,63.05
2023-01-29T07:17:10.370Z,62.75
2023-01-29T07:19:38.262Z,62.97
2023-01-29T07:22:07.582Z,62.16
2023-01-29T07:24:35.463Z,62.60
2023-01-29T07:27:03.386Z,63.46
2023-01-29T07:29:31.174Z,65.22
2023-01-29T07:31:59.289Z,63.78
2023-01-29T07:34:27.367Z,64.53
2023-01-29T07:36:56.847Z,63.98
2023-01-29T07:39:26.019Z,64.99
2023-01-29T07:41:54.053Z,64.83
2023-01-29T07:44:24.063Z,66.68
2023-01-29T07:46:52.026Z,68.01
2023-01-29T07:49:19.890Z,67.15
2023-01-29T07:51:47.733Z,68.78
2023-01-29T07:54:15.816Z,68.67
2023-01-29T07:56:45.082Z,68.58
2023-01-29T07:59:12.936Z,69.25
2023-01-29T08:01:40.899Z,68.00
2023-01-29T08:04:08.672Z,68.56
2023-01-29T08:06:36.487Z,68.62
2023-01-29T08:09:04.415Z,68.42
2023-01-29T08:11:32.238Z,69.59
2023-01-29T08:14:01.475Z,70.77
2023-01-29T08:16:29.381Z,69.63
2023-01-29T08:18:57.199Z,69.58
2023-01-29T08:21:25.011Z,70.28
2023-01-29T08:23:52.871Z,68.38
2023-01-29T08:26:20.741Z,67.28
2023-01-29T08:28:48.525Z,66.45
2023-01-29T08:31:20.531Z,67.37
2023-01-29T08:33:48.498Z,65.63
2023-01-29T08:36:16.670Z,66.35
2023-01-29T08:38:44.563Z,68.31
2023-01-29T08:41:12.438Z,66.60
2023-01-29T08:43:40.605Z,68.83
2023-01-29T08:46:13.937Z,67.05
2023-01-29T08:48:46.855Z,67.26
2023-01-29T08:51:15.977Z,66.51
2023-01-29T08:53:45.303Z,66.88
2023-01-29T08:56:13.550Z,68.22
2023-01-29T08:58:41.322Z,66.84
2023-01-29T09:01:10.506Z,66.35
2023-01-29T09:03:40.907Z,66.13
2023-01-29T09:06:11.112Z,66.26
2023-01-29T09:08:39.505Z,65.19
2023-01-29T09:11:07.974Z,64.48
2023-01-29T09:13:35.970Z,66.13
2023-01-29T09:16:05.399Z,64.97
2023-01-29T09:18:33.129Z,63.97
2023-01-29T09:21:02.551Z,63.85
2023-01-29T09:23:32.108Z,64.68
2023-01-29T09:26:00.518Z,62.76
2023-01-29T09:28:28.847Z,62.36
2023-01-29T09:30:57.079Z,64.47
2023-01-29T09:33:26.150Z,63.72
2023-01-29T09:35:53.938Z,62.44
2023-01-29T09:38:21.847Z,60.04
2023-01-29T09:40:58.918Z,59.69
2023-01-29T09:43:40.324Z,60.12
2023-01-29T09:46:18.559Z,60.01
2023-01-29T09:48:47.815Z,59.28
2023-01-29T09:51:23.741Z,58.32
2023-01-29T09:53:58.522Z,59.39
2023-01-29T09:56:29.070Z,58.88
2023-01-29T09:59:01.351Z,60.58
2023-01-29T10:01:38.183Z,61.70
2023-01-29T10:04:29.787Z,62.27
2023-01-29T10:07:09.367Z,62.03
2023-01-29T10:09:58.266Z,61.73
2023-01-29T10:12:47.261Z,62.92
2023-01-29T10:15:29.019Z,62.00
2023-01-29T10:18:16.100Z,61.14
2023-01-29T10:20:56.347Z,62.31
2023-01-29T10:23:27.860Z,63.16
2023-01-29T10:25:56.235Z,63.63
2023-01-29T10:28:31.209Z,63.33
2023-01-29T10:31:03.552Z,62.91
2023-01-29T10:33:49.540Z,64.12
2023-01-29T10:36:33.804Z,62.82
2023-01-29T10:39:01.813Z,63.73
2023-01-29T10:42:03.718Z,61.93
2023-01-29T10:44:44.383Z,62.63
2023-01-29T10:47:49.294Z,62.77
2023-01-29T10:50:24.717Z,61.72
2023-01-29T10:53:08.248Z,62.11
2023-01-29T10:55:48.468Z,61.06
2023-01-29T10:58:28.614Z,61.63
2023-01-29T11:00:57.890Z,61.09
2023-01-29T11:03:29.041Z,62.76
2023-01-29T11:06:09.115Z,62.02
2023-01-29T11:08:41.542Z,61.03
2023-01-29T11:11:14.054Z,61.17
2023-01-29T11:13:48.159Z,61.07
2023-01-29T11:16:17.539Z,60.63
2023-01-29T11:18:55.192Z,60.41
2023-01-29T11:21:24.457Z,61.95
2023-01-29T11:23:52.753Z,61.11
2023-01-29T11:26:24.241Z,62.22
2023-01-29T11:28:52.574Z,61.63
2023-01-29T11:31:24.481Z,60.73
2023-01-29T11:33:55.183Z,61.40
2023-01-29T11:36:32.857Z,60.98
2023-01-29T11:39:21.599Z,58.42
2023-01-29T11:41:58.326Z,59.91
2023-01-29T11:44:32.192Z,59.92
2023-01-29T11:47:18.083Z,61.00
2023-01-29T11:49:49.174Z,60.05
2023-01-29T11:52:19.874Z,60.38
2023-01-29T11:54:51.852Z,60.78
2023-01-29T11:57:27.431Z,59.77
2023-01-29T11:59:57.983Z,60.79
2023-01-29T12:02:34.301Z,61.06
2023-01-29T12:05:05.659Z,60.35
2023-01-29T12:07:35.520Z,58.75
2023-01-29T12:10:04.540Z,57.93
2023-01-29T12:12:37.946Z,59.31
2023-01-29T12:15:16.999Z,57.85
2023-01-29T12:17:51.942Z,58.56
2023-01-29T12:20:25.359Z,59.17
2023-01-29T12:23:02.384Z,59.42
2023-01-29T12:25:41.612Z,58.47
2023-01-29T12:28:21.185Z,60.40
2023-01-29T12:30:56.048Z,60.25
2023-01-29T12:33:39.238Z,56.92
2023-01-29T12:36:22.056Z,59.67
2023-01-29T12:38:50.280Z,60.78
2023-01-29T12:41:29.964Z,61.13
2023-01-29T12:44:03.737Z,59.49
2023-01-29T12:46:38.889Z,59.92
2023-01-29T12:49:17.594Z,59.90
2023-01-29T12:51:56.648Z,61.09
2023-01-29T12:54:32.380Z,61.91
2023-01-29T12:57:06.044Z,61.93
2023-01-29T12:59:41.032Z,60.29
2023-01-29T13:02:20.726Z,57.43
2023-01-29T13:05:01.137Z,61.70
2023-01-29T13:07:33.362Z,62.97
2023-01-29T13:10:08.395Z,61.58
2023-01-29T13:12:38.131Z,60.00
2023-01-29T13:15:16.653Z,60.19
2023-01-29T13:17:48.672Z,60.51
2023-01-29T13:20:24.098Z,60.12
2023-01-29T13:22:56.735Z,60.75
2023-01-29T13:25:26.642Z,60.17
2023-01-29T13:27:54.921Z,59.68
2023-01-29T13:30:27.925Z,60.33
2023-01-29T13:33:09.043Z,59.39
2023-01-29T13:35:42.920Z,58.44
2023-01-29T13:38:25.462Z,59.36
2023-01-29T13:40:56.874Z,61.39
2023-01-29T13:43:25.353Z,63.43
2023-01-29T13:45:55.589Z,62.80
2023-01-29T13:48:27.180Z,61.88
2023-01-29T13:51:00.711Z,63.51
2023-01-29T13:53:33.053Z,62.15
2023-01-29T13:56:33.966Z,62.23
2023-01-29T13:59:03.242Z,64.41
2023-01-29T14:02:03.830Z,65.21
2023-01-29T14:04:34.197Z,65.03
2023-01-29T14:07:04.165Z,64.32
2023-01-29T14:10:14.093Z,63.56
2023-01-29T14:13:15.004Z,63.98
2023-01-29T14:15:42.860Z,65.17
2023-01-29T14:18:20.610Z,65.20
2023-01-29T14:21:22.032Z,64.50
2023-01-29T14:23:53.665Z,63.78
2023-01-29T14:26:30.020Z,64.63
2023-01-29T14:29:01.605Z,65.01
2023-01-29T14:31:40.845Z,66.25
2023-01-29T14:34:17.869Z,66.90
2023-01-29T14:36:47.333Z,65.01
2023-01-29T14:39:26.158Z,66.83
2023-01-29T14:41:54.181Z,66.23
2023-01-29T14:45:05.137Z,67.48
2023-01-29T14:47:56.326Z,65.07
2023-01-29T14:50:59.210Z,66.11
2023-01-29T14:53:45.760Z,64.85
2023-01-29T14:56:18.447Z,66.39
2023-01-29T14:58:49.192Z,66.70
2023-01-29T15:01:23.340Z,66.55
2023-01-29T15:03:53.304Z,68.27
2023-01-29T15:06:31.608Z,69.99
2023-01-29T15:09:06.904Z,72.11
2023-01-29T15:11:45.360Z,72.85
2023-01-29T15:14:24.003Z,72.04
2023-01-29T15:17:11.617Z,73.33
2023-01-29T15:19:44.816Z,74.14
2023-01-29T15:22:14.277Z,71.21
2023-01-29T15:24:44.734Z,71.42
2023-01-29T15:27:16.932Z,71.74
2023-01-29T15:29:51.118Z,73.20
2023-01-29T15:32:30.789Z,72.33
2023-01-29T15:35:00.344Z,74.07
2023-01-29T15:37:30.870Z,74.73
2023-01-29T15:40:00.135Z,74.73
2023-01-29T15:42:30.426Z,75.26
2023-01-29T15:44:58.257Z,76.28
2023-01-29T15:47:30.052Z,75.35
2023-01-29T15:49:58.395Z,75.99
2023-01-29T15:52:29.776Z,76.47
2023-01-29T15:55:02.665Z,76.36
2023-01-29T15:57:37.267Z,76.18
2023-01-29T16:00:07.756Z,75.46
2023-01-29T16:02:42.759Z,73.62
2023-01-29T16:05:17.359Z,72.91
2023-01-29T16:07:46.649Z,72.91
2023-01-29T16:10:20.176Z,73.37
2023-01-29T16:12:52.180Z,73.39
2023-01-29T16:15:37.302Z,73.20
2023-01-29T16:18:20.981Z,75.36
2023-01-29T16:20:53.331Z,76.90
2023-01-29T16:23:25.315Z,78.06
2023-01-29T16:25:53.391Z,76.88
2023-01-29T16:28:25.565Z,76.68
2023-01-29T16:30:58.061Z,76.15
2023-01-29T16:33:34.291Z,75.31
2023-01-29T16:36:05.452Z,75.90
2023-01-29T16:38:36.757Z,77.34
2023-01-29T16:41:14.656Z,76.24
2023-01-29T16:43:53.076Z,76.53
2023-01-29T16:46:32.838Z,74.94
2023-01-29T16:49:01.288Z,73.56
2023-01-29T16:51:31.345Z,74.33
2023-01-29T16:54:01.740Z,74.49
2023-01-29T16:56:33.223Z,76.26
2023-01-29T16:59:05.502Z,75.43
2023-01-29T17:01:36.462Z,75.06
2023-01-29T17:04:11.175Z,73.64
2023-01-29T17:06:41.261Z,72.43
2023-01-29T17:09:09.381Z,72.02
2023-01-29T17:11:39.826Z,73.61
2023-01-29T17:14:11.207Z,73.20
2023-01-29T17:16:50.527Z,74.51
2023-01-29T17:19:20.675Z,74.96
2023-01-29T17:21:48.764Z,75.29
2023-01-29T17:24:16.518Z,75.05
2023-01-29T17:26:44.599Z,74.57
2023-01-29T17:29:18.502Z,74.50
2023-01-29T17:31:46.267Z,74.53
2023-01-29T17:34:15.881Z,73.84
2023-01-29T17:36:44.398Z,73.57
2023-01-29T17:39:20.833Z,74.87
2023-01-29T17:41:52.007Z,75.02
2023-01-29T17:44:21.249Z,74.56
2023-01-29T17:46:49.761Z,74.20
2023-01-29T17:49:24.115Z,73.67
2023-01-29T17:51:52.235Z,71.47
2023-01-29T17:54:20.186Z,71.33
2023-01-29T17:56:48.098Z,72.09
2023-01-29T17:59:17.478Z,72.13
2023-01-29T18:01:47.183Z,71.96
2023-01-29T18:04:15.377Z,71.07
2023-01-29T18:06:45.108Z,71.55
2023-01-29T18:09:14.704Z,71.53
2023-01-29T18:11:42.728Z,70.58
2023-01-29T18:14:14.439Z,71.39
2023-01-29T18:16:44.003Z,70.17
2023-01-29T18:19:19.700Z,71.42
2023-01-29T18:21:47.628Z,71.24
2023-01-29T18:24:15.767Z,71.39
2023-01-29T18:26:43.832Z,70.94
2023-01-29T18:29:11.631Z,70.31
2023-01-29T18:31:39.513Z,70.71
2023-01-29T18:34:07.999Z,72.46
2023-01-29T18:36:37.149Z,73.06
2023-01-29T18:39:05.174Z,72.81
2023-01-29T18:41:34.001Z,74.74
2023-01-29T18:44:01.901Z,75.13
2023-01-29T18:46:29.698Z,74.18
2023-01-29T18:48:57.503Z,75.62
2023-01-29T18:51:25.264Z,75.41
2023-01-29T18:53:54.444Z,77.26
2023-01-29T18:56:22.239Z,76.45
2023-01-29T18:58:52.365Z,74.08
2023-01-29T19:01:23.712Z,75.53
2023-01-29T19:03:52.039Z,75.41
2023-01-29T19:06:19.851Z,76.37
2023-01-29T19:08:47.946Z,75.78
2023-01-29T19:11:17.117Z,76.45
2023-01-29T19:13:46.037Z,75.15
2023-01-29T19:16:14.205Z,76.16
2023-01-29T19:18:42.018Z,77.04
2023-01-29T19:21:11.732Z,78.53
2023-01-29T19:23:39.945Z,78.39
2023-01-29T19:26:09.397Z,78.66
2023-01-29T19:28:38.545Z,76.90
2023-01-29T19:31:06.455Z,75.04
2023-01-29T19:33:34.698Z,75.87
2023-01-29T19:36:03.015Z,77.03
2023-01-29T19:38:33.445Z,75.28
2023-01-29T19:41:01.326Z,75.22
2023-01-29T19:43:30.438Z,74.58
2023-01-29T19:46:00.715Z,75.38
2023-01-29T19:48:28.888Z,76.48
2023-01-29T19:50:57.985Z,75.93
2023-01-29T19:53:28.118Z,76.90
2023-01-29T19:56:00.132Z,76.02
2023-01-29T19:58:28.060Z,76.52
2023-01-29T20:00:57.205Z,76.27
2023-01-29T20:03:27.258Z,76.00
2023-01-29T20:05:55.128Z,77.27
2023-01-29T20:08:23.886Z,75.72
2023-01-29T20:10:51.805Z,75.87
2023-01-29T20:13:19.592Z,77.39
2023-01-29T20:15:48.193Z,78.82
2023-01-29T20:18:16.982Z,76.59
2023-01-29T20:20:47.965Z,77.28
2023-01-29T20:23:35.255Z,77.99
2023-01-29T20:26:05.611Z,76.55
2023-01-29T20:28:33.507Z,77.84
2023-01-29T20:31:01.644Z,77.45
2023-01-29T20:33:29.501Z,77.46
2023-01-29T20:36:00.789Z,78.07
2023-01-29T20:38:31.462Z,77.90
2023-01-29T20:41:04.905Z,79.32
2023-01-29T20:43:33.250Z,79.21
2023-01-29T20:46:01.971Z,77.92
2023-01-29T20:48:29.905Z,78.89
2023-01-29T20:51:04.673Z,80.03
2023-01-29T20:53:32.531Z,79.69
2023-01-29T20:56:01.036Z,78.03
2023-01-29T20:58:29.971Z,78.95
2023-01-29T21:00:57.923Z,77.23
2023-01-29T21:03:25.941Z,79.85
2023-01-29T21:05:54.295Z,79.47
2023-01-29T21:08:23.478Z,76.66
2023-01-29T21:10:53.309Z,77.27
2023-01-29T21:13:21.323Z,79.94
2023-01-29T21:15:50.554Z,78.55
2023-01-29T21:18:18.992Z,77.59
2023-01-29T21:20:46.763Z,80.17
2023-01-29T21:23:14.855Z,78.90
2023-01-29T21:25:45.123Z,79.78
2023-01-29T21:28:13.782Z,78.67
2023-01-29T21:30:41.927Z,76.93
2023-01-29T21:33:09.776Z,78.61
2023-01-29T21:35:38.423Z,80.23
2023-01-29T21:38:38.933Z,78.75
2023-01-29T21:41:10.264Z,79.63
2023-01-29T21:43:37.092Z,77.44
2023-01-29T21:46:11.454Z,77.98
2023-01-29T21:48:40.428Z,78.04
2023-01-29T21:51:08.698Z,77.91
2023-01-29T21:53:36.678Z,77.14
2023-01-29T21:56:06.348Z,77.80
2023-01-29T21:58:35.475Z,77.96
2023-01-29T22:01:18.570Z,77.71
2023-01-29T22:03:51.001Z,78.08
2023-01-29T22:06:18.867Z,78.10
2023-01-29T22:08:47.069Z,81.58
2023-01-29T22:11:14.909Z,81.16
2023-01-29T22:13:44.207Z,79.81
2023-01-29T22:16:12.100Z,80.34
2023-01-29T22:18:39.914Z,82.92
2023-01-29T22:21:07.717Z,80.43
2023-01-29T22:23:35.500Z,81.55
2023-01-29T22:26:04.373Z,83.31
2023-01-29T22:28:32.231Z,82.74
2023-01-29T22:31:03.141Z,81.96
2023-01-29T22:33:31.213Z,83.80
2023-01-29T22:35:59.038Z,82.25
2023-01-29T22:38:27.103Z,81.58
2023-01-29T22:40:56.140Z,83.73
2023-01-29T22:43:25.919Z,83.36
2023-01-29T22:45:53.862Z,79.80
2023-01-29T22:48:23.917Z,82.45
2023-01-29T22:51:10.161Z,85.37
2023-01-29T22:53:44.417Z,84.64
2023-01-29T22:56:12.864Z,86.90
2023-01-29T22:58:41.160Z,85.62
2023-01-29T23:01:09.803Z,87.15
2023-01-29T23:03:38.996Z,84.45
2023-01-29T23:06:06.952Z,86.91
2023-01-29T23:08:34.886Z,87.70
2023-01-29T23:11:13.927Z,84.90
2023-01-29T23:13:43.047Z,83.71
2023-01-29T23:16:11.240Z,83.51
2023-01-29T23:18:40.469Z,83.25
2023-01-29T23:21:08.742Z,83.80
2023-01-29T23:23:37.813Z,84.55
2023-01-29T23:26:25.689Z,85.08
2023-01-29T23:28:53.534Z,84.66
2023-01-29T23:31:21.390Z,83.85
2023-01-29T23:33:50.677Z,84.60
2023-01-29T23:36:18.571Z,84.22
2023-01-29T23:38:46.476Z,84.70
2023-01-29T23:41:14.490Z,82.75
2023-01-29T23:43:42.551Z,84.63
2023-01-29T23:46:10.681Z,85.57
2023-01-29T23:48:38.494Z,84.06
2023-01-29T23:51:07.823Z,82.64
2023-01-29T23:53:35.760Z,83.10
2023-01-29T23:56:05.835Z,80.67
2023-01-29T23:58:34.404Z,79.98
